Time;durP1;ratioP1;P1;durP2;ratioP2;P2;SDS_P1;SDS_P2;PMS_P1;PMS_P2;Temp;Humidity;BMP_temperature;BMP_pressure;BME280_temperature;BME280_humidity;BME280_pressure;Samples;Min_cycle;Max_cycle;Signal;HPM_P1;HPM_P2
2022/04/13 00:00:50;;;;;;;457.83;138.65;;;;;;;;;;6091704;23;20013;-89
2022/04/13 00:03:16;;;;;;;458.52;139.65;;;;;;;;;;6092706;23;20048;-90
2022/04/13 00:05:42;;;;;;;432.00;132.10;;;;;;;;;;6091371;23;20018;-88
2022/04/13 00:08:08;;;;;;;470.40;142.88;;;;;;;;;;6091395;23;20450;-90
2022/04/13 00:10:35;;;;;;;464.58;139.52;;;;;;;;;;6117059;23;20335;-89
2022/04/13 00:13:01;;;;;;;413.75;128.63;;;;;;;;;;6117322;23;19998;-89
2022/04/13 00:15:27;;;;;;;424.13;130.50;;;;;;;;;;6117471;23;19998;-89
2022/04/13 00:17:54;;;;;;;375.30;118.63;;;;;;;;;;6117498;23;19998;-91
2022/04/13 00:20:21;;;;;;;359.77;115.82;;;;;;;;;;6092154;23;20006;-90
2022/04/13 00:22:47;;;;;;;384.13;123.70;;;;;;;;;;6118316;23;20073;-89
2022/04/13 00:25:14;;;;;;;215.70;78.20;;;;;;;;;;6117396;23;20358;-90
2022/04/13 00:27:40;;;;;;;256.60;89.32;;;;;;;;;;6091538;23;20005;-90
2022/04/13 00:30:07;;;;;;;271.48;94.00;;;;;;;;;;6117319;23;20006;-88
2022/04/13 00:32:33;;;;;;;372.55;118.50;;;;;;;;;;6091261;23;20017;-90
2022/04/13 00:35:03;;;;;;;345.52;112.18;;;;;;;;;;6117223;23;20013;-90
2022/04/13 00:37:29;;;;;;;405.98;126.15;;;;;;;;;;6091157;23;20089;-89
2022/04/13 00:39:56;;;;;;;430.25;132.77;;;;;;;;;;6117204;23;20004;-88
2022/04/13 00:42:22;;;;;;;434.88;136.48;;;;;;;;;;6117044;23;20481;-90
2022/04/13 00:44:48;;;;;;;442.42;136.50;;;;;;;;;;6092090;23;20086;-88
2022/04/13 00:47:14;;;;;;;450.77;139.38;;;;;;;;;;6091167;23;20013;-89
2022/04/13 00:49:40;;;;;;;425.85;133.52;;;;;;;;;;6091554;23;20085;-90
2022/04/13 00:52:07;;;;;;;423.02;133.10;;;;;;;;;;6091094;23;20010;-89
2022/04/13 00:54:34;;;;;;;426.27;133.30;;;;;;;;;;6091445;23;20426;-90
2022/04/13 00:57:01;;;;;;;436.83;135.60;;;;;;;;;;6117245;23;20129;-89
2022/04/13 00:59:27;;;;;;;453.90;141.13;;;;;;;;;;6117339;23;20034;-89
2022/04/13 01:01:57;;;;;;;524.72;161.35;;;;;;;;;;6090899;23;20544;-90
2022/04/13 01:04:23;;;;;;;546.38;172.27;;;;;;;;;;6116900;23;20434;-89
2022/04/13 01:06:50;;;;;;;540.67;170.93;;;;;;;;;;6091658;23;20014;-87
2022/04/13 01:09:17;;;;;;;570.83;185.30;;;;;;;;;;6117142;23;20025;-89
2022/04/13 01:11:44;;;;;;;563.28;182.32;;;;;;;;;;6091127;23;20442;-91
2022/04/13 01:14:10;;;;;;;561.15;180.52;;;;;;;;;;6090912;23;20045;-89
2022/04/13 01:16:39;;;;;;;598.20;198.73;;;;;;;;;;6116805;23;20338;-90
2022/04/13 01:19:13;;;;;;;610.15;203.73;;;;;;;;;;6117017;23;20002;-89
2022/04/13 01:22:09;;;;;;;607.30;202.10;;;;;;;;;;6117079;23;20009;-89
2022/04/13 01:24:35;;;;;;;626.90;212.80;;;;;;;;;;6090675;23;20060;-89
2022/04/13 01:27:02;;;;;;;22.30;14.95;;;;;;;;;;6090880;23;20029;-89
2022/04/13 01:29:28;;;;;;;288.40;100.78;;;;;;;;;;6090767;23;20009;-90
2022/04/13 01:31:55;;;;;;;293.52;102.22;;;;;;;;;;6093136;23;20010;-90
2022/04/13 01:34:21;;;;;;;307.92;107.97;;;;;;;;;;6119316;23;20060;-91
2022/04/13 01:36:47;;;;;;;326.77;112.35;;;;;;;;;;6118248;23;20029;-88
2022/04/13 01:39:13;;;;;;;366.90;123.93;;;;;;;;;;6118007;23;20064;-90
2022/04/13 01:41:39;;;;;;;329.77;114.03;;;;;;;;;;6118206;23;20042;-89
2022/04/13 01:44:05;;;;;;;332.73;115.63;;;;;;;;;;6117908;23;19998;-90
2022/04/13 01:46:34;;;;;;;311.50;109.93;;;;;;;;;;6118315;23;20014;-91
2022/04/13 01:49:00;;;;;;;371.75;123.90;;;;;;;;;;6092384;23;20002;-89
2022/04/13 01:51:26;;;;;;;376.65;127.07;;;;;;;;;;6092094;23;20010;-89
2022/04/13 01:53:52;;;;;;;408.65;132.75;;;;;;;;;;6092860;23;20396;-90
2022/04/13 01:56:19;;;;;;;376.98;127.97;;;;;;;;;;6118022;23;20013;-90
2022/04/13 01:58:45;;;;;;;396.20;133.57;;;;;;;;;;6117934;23;19998;-90
2022/04/13 02:01:11;;;;;;;435.05;143.20;;;;;;;;;;6092212;23;20056;-89
2022/04/13 02:03:37;;;;;;;419.80;139.00;;;;;;;;;;6092167;23;20006;-90
2022/04/13 02:06:06;;;;;;;429.42;139.07;;;;;;;;;;6092078;23;20101;-89
2022/04/13 02:08:34;;;;;;;440.25;145.65;;;;;;;;;;6117892;23;20002;-90
2022/04/13 02:11:00;;;;;;;;;;;;;;;;;;6092974;23;20096;-89
2022/04/13 02:13:27;;;;;;;442.67;146.88;;;;;;;;;;6118405;23;19901;-87
2022/04/13 02:15:53;;;;;;;366.83;124.22;;;;;;;;;;6092977;23;20020;-89
2022/04/13 02:18:19;;;;;;;339.83;116.95;;;;;;;;;;6091868;23;19998;-90
2022/04/13 02:20:45;;;;;;;405.42;133.65;;;;;;;;;;6091930;23;20006;-89
2022/04/13 02:23:11;;;;;;;395.65;131.25;;;;;;;;;;6092397;23;20028;-90
2022/04/13 02:25:37;;;;;;;397.60;132.55;;;;;;;;;;6117931;23;20013;-90
2022/04/13 02:28:06;;;;;;;425.33;140.40;;;;;;;;;;6117859;23;20002;-91
2022/04/13 02:30:32;;;;;;;408.58;135.13;;;;;;;;;;6118490;23;20005;-89
2022/04/13 02:32:59;;;;;;;456.60;146.80;;;;;;;;;;6118892;23;20051;-90
2022/04/13 02:35:25;;;;;;;503.70;166.75;;;;;;;;;;6094118;23;20009;-90
2022/04/13 02:37:51;;;;;;;602.88;211.20;;;;;;;;;;6119164;23;20014;-89
2022/04/13 02:40:17;;;;;;;514.97;166.90;;;;;;;;;;6092600;23;20040;-90
2022/04/13 02:42:43;;;;;;;501.58;163.90;;;;;;;;;;6091827;23;20043;-90
2022/04/13 02:45:10;;;;;;;562.67;189.63;;;;;;;;;;6118003;23;20415;-89
2022/04/13 02:47:36;;;;;;;586.20;202.32;;;;;;;;;;6091850;23;20389;-91
2022/04/13 02:50:03;;;;;;;569.85;193.25;;;;;;;;;;6118196;23;20005;-88
2022/04/13 02:52:29;;;;;;;576.03;197.02;;;;;;;;;;6119537;23;20028;-89
2022/04/13 02:54:56;;;;;;;606.08;211.13;;;;;;;;;;6093605;23;20044;-88
2022/04/13 02:57:22;;;;;;;601.17;208.82;;;;;;;;;;6117910;23;20488;-89
2022/04/13 02:59:49;;;;;;;598.83;206.85;;;;;;;;;;6118806;23;20442;-90
2022/04/13 03:02:15;;;;;;;598.17;210.27;;;;;;;;;;6117597;23;20002;-88
2022/04/13 03:04:48;;;;;;;582.88;203.13;;;;;;;;;;6117903;23;19998;-89
2022/04/13 03:07:17;;;;;;;559.70;190.73;;;;;;;;;;6117568;23;20063;-89
2022/04/13 03:09:43;;;;;;;556.53;189.88;;;;;;;;;;6117656;23;20032;-91
2022/04/13 03:12:13;;;;;;;524.75;175.68;;;;;;;;;;6118301;23;20016;-92
2022/04/13 03:14:39;;;;;;;454.58;150.70;;;;;;;;;;6093287;23;20002;-91
2022/04/13 03:17:05;;;;;;;13.90;8.88;;;;;;;;;;6091769;23;20063;-90
2022/04/13 03:19:31;;;;;;;13.68;7.70;;;;;;;;;;6091467;23;20006;-89
2022/04/13 03:24:51;;;;;;;13.60;8.57;;;;;;;;;;6118548;23;20439;-88
2022/04/13 03:27:17;;;;;;;16.75;8.65;;;;;;;;;;6118189;23;20089;-87
2022/04/13 03:29:43;;;;;;;17.10;7.68;;;;;;;;;;6117921;23;20002;-89
2022/04/13 03:32:09;;;;;;;13.27;8.30;;;;;;;;;;6118482;23;20036;-90
2022/04/13 03:34:36;;;;;;;14.85;8.05;;;;;;;;;;6093334;23;20013;-88
2022/04/13 03:37:02;;;;;;;11.40;8.25;;;;;;;;;;6094787;23;20568;-87
2022/04/13 03:39:29;;;;;;;15.10;8.75;;;;;;;;;;6094508;23;20002;-90
2022/04/13 03:41:55;;;;;;;15.77;7.70;;;;;;;;;;6119147;23;20013;-87
2022/04/13 03:44:21;;;;;;;19.48;8.50;;;;;;;;;;6120004;23;20005;-88
2022/04/13 03:46:47;;;;;;;12.38;8.32;;;;;;;;;;6093440;23;20046;-88
2022/04/13 03:49:14;;;;;;;11.50;6.90;;;;;;;;;;6119139;23;20435;-88
2022/04/13 03:51:40;;;;;;;14.07;6.85;;;;;;;;;;6094915;23;20051;-88
2022/04/13 03:54:06;;;;;;;9.02;7.53;;;;;;;;;;6094496;23;20006;-89
2022/04/13 03:56:33;;;;;;;12.05;6.93;;;;;;;;;;6121207;23;20016;-88
2022/04/13 03:59:00;;;;;;;18.55;8.45;;;;;;;;;;6122476;23;20462;-88
2022/04/13 04:01:26;;;;;;;11.80;6.95;;;;;;;;;;6120539;23;20055;-88
2022/04/13 04:03:55;;;;;;;12.77;7.90;;;;;;;;;;6119748;23;20013;-87
2022/04/13 04:06:24;;;;;;;16.17;8.38;;;;;;;;;;6095501;23;20014;-90
2022/04/13 04:08:50;;;;;;;11.75;7.90;;;;;;;;;;6120070;23;20059;-90
2022/04/13 04:11:16;;;;;;;11.23;7.90;;;;;;;;;;6094375;23;20045;-91
2022/04/13 04:13:43;;;;;;;11.32;7.43;;;;;;;;;;6093064;23;20010;-90
2022/04/13 04:22:24;;;;;;;11.95;7.53;;;;;;;;;;6106725;23;20438;-88
2022/04/13 04:24:55;;;;;;;;;;;;;;;;;;6136385;23;20013;-89
2022/04/13 04:27:22;;;;;;;17.85;7.72;;;;;;;;;;6123967;23;19909;-89
2022/04/13 04:29:50;;;;;;;17.45;7.90;;;;;;;;;;6098005;23;20040;-89
2022/04/13 04:32:20;;;;;;;16.05;9.20;;;;;;;;;;6122969;23;20010;-90
2022/04/13 04:34:55;;;;;;;13.95;8.55;;;;;;;;;;6123322;23;20010;-90
2022/04/13 04:37:21;;;;;;;15.18;9.25;;;;;;;;;;6122673;23;20038;-90
2022/04/13 04:39:49;;;;;;;11.38;7.82;;;;;;;;;;6122584;23;20002;-90
2022/04/13 04:42:16;;;;;;;10.43;7.15;;;;;;;;;;6123362;23;20017;-89
2022/04/13 04:44:47;;;;;;;12.32;7.10;;;;;;;;;;6096349;23;20006;-89
2022/04/13 04:47:34;;;;;;;12.57;7.32;;;;;;;;;;6062143;23;20430;-90
2022/04/13 04:50:04;;;;;;;17.27;8.27;;;;;;;;;;6062729;23;20028;-90
2022/04/13 04:52:51;;;;;;;9.18;6.55;;;;;;;;;;6062672;23;20011;-89
2022/04/13 04:55:25;;;;;;;12.40;7.93;;;;;;;;;;6061407;23;20007;-89
2022/04/13 04:57:51;;;;;;;9.02;6.95;;;;;;;;;;6063342;23;20013;-90
2022/04/13 05:00:19;;;;;;;9.27;6.35;;;;;;;;;;6038918;23;20057;-91
2022/04/13 05:02:47;;;;;;;10.55;7.68;;;;;;;;;;6063243;23;20018;-90
2022/04/13 05:05:17;;;;;;;12.00;7.22;;;;;;;;;;6066818;23;20014;-90
2022/04/13 05:07:49;;;;;;;8.50;6.13;;;;;;;;;;6045284;23;20011;-90
2022/04/13 05:10:25;;;;;;;10.35;7.22;;;;;;;;;;6042547;23;20057;-90
2022/04/13 05:12:56;;;;;;;14.70;7.18;;;;;;;;;;6041391;23;20018;-89
2022/04/13 05:15:22;;;;;;;12.90;7.22;;;;;;;;;;6040772;23;20459;-89
2022/04/13 05:17:58;;;;;;;9.15;6.07;;;;;;;;;;6054417;23;20006;-89
2022/04/13 05:20:41;;;;;;;7.38;5.82;;;;;;;;;;6122174;23;20006;-89
2022/04/13 05:23:07;;;;;;;12.40;6.25;;;;;;;;;;6099940;23;20317;-89
2022/04/13 05:25:34;;;;;;;14.98;9.32;;;;;;;;;;6100448;23;20010;-90
2022/04/13 05:28:02;;;;;;;13.82;11.05;;;;;;;;;;6125359;23;20052;-89
2022/04/13 05:30:37;;;;;;;;;;;;;;;;;;6099948;23;20093;-90
2022/04/13 05:33:06;;;;;;;16.00;12.25;;;;;;;;;;6124942;23;19905;-89
2022/04/13 05:35:36;;;;;;;11.43;6.78;;;;;;;;;;6125618;23;20010;-89
2022/04/13 05:38:12;;;;;;;16.45;9.07;;;;;;;;;;6099662;23;20360;-89
2022/04/13 05:40:41;;;;;;;73.63;36.55;;;;;;;;;;6099311;23;20029;-89
2022/04/13 05:43:07;;;;;;;211.27;83.88;;;;;;;;;;6102981;23;20374;-89
2022/04/13 05:45:34;;;;;;;117.50;57.72;;;;;;;;;;6123524;23;20449;-89
2022/04/13 05:48:03;;;;;;;246.60;87.18;;;;;;;;;;6100479;23;20017;-88
2022/04/13 05:50:29;;;;;;;458.17;116.50;;;;;;;;;;6101532;23;20034;-91
2022/04/13 05:52:56;;;;;;;371.42;86.22;;;;;;;;;;6125953;23;20002;-89
2022/04/13 05:55:27;;;;;;;295.35;91.97;;;;;;;;;;6099561;23;20013;-88
2022/04/13 05:58:10;;;;;;;;;;;;;;;;;;;;;
2022/04/13 06:00:43;;;;;;;311.70;100.55;;;;;;;;;;6125235;23;20069;-89
2022/04/13 06:03:09;;;;;;;352.42;90.78;;;;;;;;;;6099306;23;20010;-88
2022/04/13 06:05:38;;;;;;;354.35;93.55;;;;;;;;;;6101479;23;20075;-88
2022/04/13 06:08:04;;;;;;;228.15;87.07;;;;;;;;;;6098112;23;20010;-89
2022/04/13 06:10:34;;;;;;;203.10;78.82;;;;;;;;;;6124060;23;20006;-89
2022/04/13 06:13:00;;;;;;;173.00;71.38;;;;;;;;;;6099299;23;20335;-89
2022/04/13 06:15:28;;;;;;;220.10;85.97;;;;;;;;;;6099359;23;20002;-87
2022/04/13 06:17:54;;;;;;;191.48;77.03;;;;;;;;;;6124789;23;20085;-88
2022/04/13 06:20:22;;;;;;;224.65;86.18;;;;;;;;;;6120051;23;20009;-90
2022/04/13 06:22:52;;;;;;;38.17;19.80;;;7.40;99.90;;;;;;6094906;23;20022;-89
2022/04/13 06:25:26;;;;;;;11.20;8.35;;;7.40;99.90;;;;;;6092365;23;20010;-92
2022/04/13 06:27:52;;;;;;;25.98;21.00;;;7.30;99.90;;;;;;6092486;23;20006;-90
2022/04/13 06:30:17;;;;;;;12.52;9.65;;;7.50;99.90;;;;;;6092422;23;20006;-88
2022/04/13 06:32:45;;;;;;;9.13;7.97;;;7.80;99.90;;;;;;6092388;23;20347;-88
2022/04/13 06:35:16;;;;;;;9.15;6.70;;;7.70;99.90;;;;;;6118002;23;20026;-88
2022/04/13 06:37:44;;;;;;;8.02;6.55;;;7.80;99.90;;;;;;6117832;23;20006;-89
2022/04/13 06:40:11;;;;;;;7.87;6.43;;;8.00;99.90;;;;;;6092363;23;20017;-89
2022/04/13 06:42:38;;;;;;;11.43;6.32;;;8.30;99.90;;;;;;6118927;23;20245;-90
2022/04/13 06:45:10;;;;;;;8.50;6.07;;;8.20;99.90;;;;;;6117656;23;20006;-90
2022/04/13 06:47:37;;;;;;;8.10;6.45;;;8.30;99.90;;;;;;6092602;23;20002;-90
2022/04/13 06:50:03;;;;;;;10.90;6.85;;;8.40;99.90;;;;;;6091803;23;20381;-89
2022/04/13 06:52:35;;;;;;;11.77;8.05;;;8.40;99.90;;;;;;6117482;23;20002;-90
2022/04/13 06:55:02;;;;;;;10.52;7.50;;;8.50;99.90;;;;;;6117820;23;20312;-89
2022/04/13 06:57:28;;;;;;;14.73;8.95;;;8.70;99.90;;;;;;6091542;23;20467;-88
2022/04/13 06:59:53;;;;;;;14.18;8.32;;;8.90;99.90;;;;;;6117263;23;19998;-89
2022/04/13 07:02:19;;;;;;;27.25;7.85;;;9.00;99.90;;;;;;6118197;23;20002;-89
2022/04/13 07:04:45;;;;;;;9.23;6.68;;;9.00;99.90;;;;;;6117712;23;19998;-89
2022/04/13 07:07:10;;;;;;;9.10;5.78;;;9.10;99.90;;;;;;6092445;23;20022;-89
2022/04/13 07:09:36;;;;;;;7.43;5.95;;;9.30;99.90;;;;;;6117205;23;20461;-89
2022/04/13 07:12:02;;;;;;;19.48;5.68;;;;;;;;;;6117176;23;20356;-88
2022/04/13 07:14:28;;;;;;;12.20;6.57;;;9.40;99.90;;;;;;6117794;23;20005;-91
2022/04/13 07:16:54;;;;;;;70.68;6.90;;;;;;;;;;6117106;23;20006;-90
2022/04/13 07:19:20;;;;;;;13.55;5.95;;;;;;;;;;6117132;23;20030;-89
2022/04/13 07:21:46;;;;;;;10.50;5.68;;;;;;;;;;6116980;23;20446;-88
2022/04/13 07:24:12;;;;;;;15.48;6.20;;;;;;;;;;6118306;23;19998;-88
2022/04/13 07:26:38;;;;;;;16.02;5.80;;;;;;;;;;6091548;23;20052;-89
2022/04/13 07:29:04;;;;;;;6.55;5.53;;;;;;;;;;6116970;23;20002;-89
2022/04/13 07:31:31;;;;;;;8.43;6.40;;;;;;;;;;6116966;23;20028;-89
2022/04/13 07:33:57;;;;;;;7.47;6.68;;;;;;;;;;6117071;23;20141;-90
2022/04/13 07:36:23;;;;;;;7.85;6.30;;;;;;;;;;6116093;23;20055;-89
2022/04/13 07:38:52;;;;;;;9.90;6.43;;;;;;;;;;6116272;23;20009;-89
2022/04/13 07:41:18;;;;;;;11.98;6.35;;;;;;;;;;6116369;23;20080;-89
2022/04/13 07:43:46;;;;;;;8.27;6.13;;;;;;;;;;6107375;23;20009;-90
2022/04/13 07:46:13;;;;;;;8.07;6.53;;;;;;;;;;6091323;23;20104;-89
2022/04/13 07:48:39;;;;;;;8.43;6.57;;;;;;;;;;6091645;23;20029;-90
2022/04/13 07:51:06;;;;;;;8.32;6.50;;;;;;;;;;6091378;23;20021;-90
2022/04/13 07:53:32;;;;;;;8.55;6.22;;;;;;;;;;6117366;23;20020;-89
2022/04/13 07:55:58;;;;;;;10.70;6.55;;;;;;;;;;6091156;23;20493;-89
2022/04/13 07:58:24;;;;;;;7.65;6.85;;;;;;;;;;6116844;23;20442;-88
2022/04/13 08:00:50;;;;;;;8.07;6.50;;;;;;;;;;6091488;23;20422;-90
2022/04/13 08:03:16;;;;;;;10.45;7.15;;;;;;;;;;6116786;23;20497;-89
2022/04/13 08:05:42;;;;;;;9.45;7.10;;;;;;;;;;6117716;23;20010;-90
2022/04/13 08:08:08;;;;;;;9.77;7.45;;;;;;;;;;6091085;23;20346;-88
2022/04/13 08:10:34;;;;;;;12.18;8.23;;;;;;;;;;6116690;23;20476;-89
2022/04/13 08:13:00;;;;;;;10.48;7.70;;;;;;;;;;6116001;23;20006;-90
2022/04/13 08:15:26;;;;;;;12.50;8.15;;;;;;;;;;6090756;23;20434;-89
2022/04/13 08:17:52;;;;;;;20.08;12.38;;;;;;;;;;6116618;23;20336;-91
2022/04/13 08:20:18;;;;;;;17.40;11.50;;;;;;;;;;6090842;23;20010;-88
2022/04/13 08:22:45;;;;;;;17.38;9.07;;;;;;;;;;6116929;23;19998;-89
2022/04/13 08:25:12;;;;;;;32.88;14.55;;;;;;;;;;6118050;23;20009;-88
2022/04/13 08:27:38;;;;;;;29.50;13.50;;;;;;;;;;6090562;23;20006;-87
2022/04/13 08:30:04;;;;;;;60.80;25.98;;;;;;;;;;6116917;23;20033;-90
2022/04/13 08:32:30;;;;;;;69.82;28.80;;;;;;;;;;6116167;23;20037;-90
2022/04/13 08:35:05;;;;;;;94.18;35.40;;;;;;;;;;6092388;23;20381;-90
2022/04/13 08:37:32;;;;;;;97.85;35.47;;;;;;;;;;6117894;23;20466;-90
2022/04/13 08:39:58;;;;;;;100.28;38.53;;;;;;;;;;6117298;23;20002;-88
2022/04/13 08:42:27;;;;;;;96.53;36.10;;;;;;;;;;6118001;23;20006;-91
2022/04/13 08:44:54;;;;;;;76.90;34.17;;;;;;;;;;6091971;23;20010;-91
2022/04/13 08:47:21;;;;;;;74.97;32.15;;;;;;;;;;6117718;23;20436;-92
2022/04/13 08:49:51;;;;;;;50.35;22.60;;;;;;;;;;6117543;23;20005;-91
2022/04/13 08:52:22;;;;;;;45.72;21.38;;;;;;;;;;6117753;23;20462;-92
2022/04/13 08:54:48;;;;;;;46.60;20.63;;;;;;;;;;6092188;23;20006;-90
2022/04/13 08:57:15;;;;;;;46.33;20.42;;;;;;;;;;6118333;23;20013;-91
2022/04/13 08:59:50;;;;;;;43.33;20.27;;;;;;;;;;6118411;23;20029;-91
2022/04/13 09:02:25;;;;;;;34.67;18.70;;;;;;;;;;6118037;23;20006;-91
2022/04/13 09:04:52;;;;;;;42.60;19.25;;;;;;;;;;6117834;23;20069;-91
2022/04/13 09:07:18;;;;;;;36.15;16.48;;;;;;;;;;6117549;23;20091;-91
2022/04/13 09:09:46;;;;;;;32.38;16.67;;;;;;;;;;6118597;23;20005;-91
2022/04/13 09:12:14;;;;;;;31.13;16.17;;;;;;;;;;6093357;23;20002;-93
2022/04/13 09:14:40;;;;;;;34.08;16.90;;;;;;;;;;6117834;23;20009;-93
2022/04/13 09:17:06;;;;;;;35.63;17.38;;;;;;;;;;6117537;23;20377;-91
2022/04/13 09:19:36;;;;;;;30.48;16.55;;;;;;;;;;6117697;23;20010;-93
2022/04/13 09:22:02;;;;;;;31.00;16.13;;;;;;;;;;6117520;23;20002;-90
2022/04/13 09:24:28;;;;;;;31.08;15.48;;;;;;;;;;6091529;23;20017;-91
2022/04/13 09:26:54;;;;;;;22.67;13.73;;;;;;;;;;6117424;23;20403;-91
2022/04/13 09:29:20;;;;;;;26.17;13.95;;;;;;;;;;6092185;23;20079;-92
2022/04/13 09:31:46;;;;;;;24.20;12.90;;;;;;;;;;6091966;23;20006;-89
2022/04/13 09:34:12;;;;;;;23.02;12.00;;;;;;;;;;6118563;23;20005;-92
2022/04/13 09:36:39;;;;;;;19.23;11.95;;;;;;;;;;6091727;23;20339;-90
2022/04/13 09:39:05;;;;;;;23.17;10.25;;;;;;;;;;6117241;23;20003;-92
2022/04/13 09:41:35;;;;;;;18.33;10.30;;;;;;;;;;6091555;23;20014;-90
2022/04/13 09:44:02;;;;;;;17.80;9.07;;;;;;;;;;6091874;23;20012;-92
2022/04/13 09:46:30;;;;;;;15.55;8.88;;;;;;;;;;6092026;23;20018;-92
2022/04/13 09:48:56;;;;;;;;;;;;;;;;;;6092023;23;20385;-94
2022/04/13 09:51:35;;;;;;;12.48;7.65;;;;;;;;;;6117534;23;20351;-92
2022/04/13 09:54:04;;;;;;;11.25;7.05;;;;;;;;;;6118780;23;20013;-92
2022/04/13 09:56:30;;;;;;;13.27;7.53;;;;;;;;;;6092566;23;20443;-92
2022/04/13 09:58:56;;;;;;;11.63;6.45;;;;;;;;;;6118393;23;20006;-91
2022/04/13 10:01:23;;;;;;;15.48;6.03;;;;;;;;;;6118441;23;20002;-92
2022/04/13 10:03:55;;;;;;;9.65;4.20;;;;;;;;;;6118477;23;20001;-91
2022/04/13 10:06:28;;;;;;;8.23;3.35;;;;;;;;;;6118492;23;20014;-92
2022/04/13 10:09:08;;;;;;;4.57;2.40;;;;;;;;;;6118625;23;20056;-92
2022/04/13 10:11:34;;;;;;;7.13;1.75;;;;;;;;;;6092651;23;20070;-92
2022/04/13 10:14:02;;;;;;;6.20;2.28;;;;;;;;;;6118424;23;20025;-92
2022/04/13 10:16:32;;;;;;;5.37;2.27;;;;;;;;;;6092937;23;20010;-90
2022/04/13 10:18:59;;;;;;;9.27;2.15;;;;;;;;;;6118885;23;20010;-91
2022/04/13 10:21:34;;;;;;;6.13;1.83;;;;;;;;;;6118508;23;20063;-89
2022/04/13 10:24:01;;;;;;;4.70;1.70;;;;;;;;;;6118388;23;20029;-95
2022/04/13 10:26:27;;;;;;;5.40;1.98;;;;;;;;;;6092439;23;20014;-88
2022/04/13 10:28:53;;;;;;;5.35;2.03;;;;;;;;;;6117898;23;20002;-89
2022/04/13 10:31:20;;;;;;;4.93;2.13;;;;;;;;;;6093039;23;20028;-89
2022/04/13 10:33:46;;;;;;;11.40;2.10;;;;;;;;;;6093472;23;20006;-90
2022/04/13 10:36:12;;;;;;;7.13;2.25;;;;;;;;;;6092997;23;20446;-92
2022/04/13 10:38:38;;;;;;;5.05;2.00;;;;;;;;;;6118250;23;20389;-92
2022/04/13 10:41:05;;;;;;;3.05;0.98;;;;;;;;;;6118267;23;20428;-91
2022/04/13 10:43:31;;;;;;;5.22;1.67;;;;;;;;;;6092464;23;20006;-92
2022/04/13 10:45:58;;;;;;;4.22;1.73;;;;;;;;;;6117914;23;20010;-91
2022/04/13 10:48:29;;;;;;;2.47;1.00;;;;;;;;;;6118674;23;20006;-90
2022/04/13 10:50:57;;;;;;;3.03;1.15;;;;;;;;;;6118168;23;20005;-89
2022/04/13 10:53:30;;;;;;;3.53;1.30;;;;;;;;;;6118181;23;20397;-91
2022/04/13 10:56:03;;;;;;;3.65;1.40;;;;;;;;;;6092613;23;20039;-90
2022/04/13 10:58:29;;;;;;;5.93;1.30;;;;;;;;;;6092048;23;20012;-89
2022/04/13 11:01:02;;;;;;;3.17;1.73;;;;;;;;;;6118133;23;20074;-92
2022/04/13 11:03:32;;;;;;;5.63;1.40;;;;;;;;;;6117769;23;20009;-94
2022/04/13 11:05:58;;;;;;;4.82;1.50;;;;;;;;;;6118128;23;20047;-91
2022/04/13 11:08:30;;;;;;;6.20;1.10;;;;;;;;;;6118077;23;20002;-92
2022/04/13 11:10:56;;;;;;;3.55;1.10;;;;;;;;;;6117773;23;20006;-92
2022/04/13 11:13:23;;;;;;;3.10;1.33;;;;;;;;;;6092464;23;20067;-89
2022/04/13 11:15:50;;;;;;;2.45;1.17;;;;;;;;;;6119280;23;20069;-92
2022/04/13 11:18:20;;;;;;;4.75;1.20;;;;;;;;;;6118131;23;20002;-89
2022/04/13 11:21:05;;;;;;;1.50;1.20;;;;;;;;;;6118388;23;20002;-92
2022/04/13 11:23:49;;;;;;;4.13;1.15;;;;;;;;;;6092655;23;20002;-92
2022/04/13 11:26:28;;;;;;;3.17;1.20;;;;;;;;;;6118163;23;20014;-93
2022/04/13 11:29:09;;;;;;;3.60;1.10;;;;;;;;;;6092285;23;20009;-90
2022/04/13 11:31:54;;;;;;;3.85;1.33;;;;;;;;;;6117942;23;20006;-92
2022/04/13 11:34:28;;;;;;;2.58;1.33;;;;;;;;;;6093414;23;20435;-90
2022/04/13 11:36:58;;;;;;;4.95;1.80;;;;;;;;;;6118172;23;20002;-89
2022/04/13 11:39:43;;;;;;;2.92;1.65;;;;;;;;;;6118029;23;20076;-89
2022/04/13 11:42:21;;;;;;;3.95;1.85;;;;;;;;;;6091977;23;20045;-92
2022/04/13 11:44:51;;;;;;;6.00;2.03;;;;;;;;;;6092645;23;20414;-91
2022/04/13 11:47:18;;;;;;;4.18;1.73;;;;;;;;;;6117984;23;20085;-92
2022/04/13 11:49:56;;;;;;;6.10;2.20;;;;;;;;;;6092603;23;20002;-91
2022/04/13 11:52:45;;;;;;;7.65;1.80;;;;;;;;;;6093294;23;20010;-90
2022/04/13 11:55:35;;;;;;;3.00;1.50;;;;;;;;;;6092985;23;20071;-90
2022/04/13 11:58:10;;;;;;;3.08;1.48;;;;;;;;;;6095935;23;20013;-93
2022/04/13 12:00:55;;;;;;;3.72;1.75;;;;;;;;;;6092026;23;20013;-91
2022/04/13 12:03:22;;;;;;;5.47;1.40;;;;;;;;;;6119043;23;20335;-89
2022/04/13 12:05:50;;;;;;;3.08;1.27;;;;;;;;;;6117814;23;20010;-91
2022/04/13 12:08:18;;;;;;;5.05;1.50;;;;;;;;;;6118053;23;20006;-92
2022/04/13 12:10:48;;;;;;;3.42;1.17;;;;;;;;;;6117793;23;20002;-91
2022/04/13 12:13:14;;;;;;;4.28;1.80;;;;;;;;;;6091864;23;20010;-91
2022/04/13 12:15:44;;;;;;;3.85;1.50;;;;;;;;;;6117979;23;20343;-90
2022/04/13 12:18:11;;;;;;;3.42;1.40;;;;;;;;;;6117978;23;20006;-90
2022/04/13 12:20:37;;;;;;;3.00;1.50;;;;;;;;;;6092433;23;20006;-94
2022/04/13 12:23:22;;;;;;;3.10;0.93;;;;;;;;;;6092135;23;20006;-89
2022/04/13 12:25:49;;;;;;;1.95;1.20;;;;;;;;;;6092099;23;20010;-92
2022/04/13 12:28:16;;;;;;;5.28;1.25;;;;;;;;;;6092372;23;20516;-93
2022/04/13 12:30:42;;;;;;;2.90;1.38;;;;;;;;;;6117850;23;19998;-90
2022/04/13 12:33:23;;;;;;;3.40;1.10;;;;;;;;;;6092127;23;20010;-92
2022/04/13 12:36:02;;;;;;;2.53;0.90;;;;;;;;;;6117572;23;20047;-92
2022/04/13 12:38:29;;;;;;;5.50;1.10;;;;;;;;;;6117745;23;20002;-90
2022/04/13 12:41:02;;;;;;;2.88;1.30;;;;;;;;;;6118552;23;20010;-91
2022/04/13 12:43:28;;;;;;;2.15;1.00;;;;;;;;;;6091879;23;20063;-91
2022/04/13 12:45:55;;;;;;;3.40;1.30;;;;;;;;;;6118325;23;20021;-90
2022/04/13 12:48:27;;;;;;;1.40;1.00;;;;;;;;;;6091740;23;20438;-90
2022/04/13 12:50:58;;;;;;;3.60;1.20;;;;;;;;;;6092532;23;20013;-90
2022/04/13 12:53:24;;;;;;;2.03;0.95;;;;;;;;;;6118895;23;20346;-91
2022/04/13 12:55:57;;;;;;;3.42;1.30;;;;;;;;;;6092272;23;20002;-87
2022/04/13 12:58:24;;;;;;;3.70;1.00;;;;;;;;;;6092787;23;20347;-91
2022/04/13 13:00:50;;;;;;;3.20;1.02;;;;;;;;;;6117662;23;20002;-93
2022/04/13 13:03:16;;;;;;;4.20;1.08;;;;;;;;;;6091897;23;20352;-93
2022/04/13 13:05:43;;;;;;;3.28;1.20;;;;;;;;;;6117845;23;20011;-92
2022/04/13 13:08:09;;;;;;;4.65;1.65;;;;;;;;;;6091875;23;20040;-93
2022/04/13 13:10:35;;;;;;;2.85;1.10;;;;;;;;;;6117639;23;20005;-92
2022/04/13 13:13:18;;;;;;;5.05;1.42;;;;;;;;;;6117307;23;20001;-91
2022/04/13 13:15:44;;;;;;;1.92;0.90;;;;;;;;;;6118355;23;20006;-93
2022/04/13 13:18:10;;;;;;;2.03;1.15;;;;;;;;;;6117670;23;20081;-89
2022/04/13 13:20:52;;;;;;;4.57;1.00;;;;;;;;;;6091728;23;20002;-90
2022/04/13 13:23:23;;;;;;;2.80;1.08;;;;;;;;;;6117162;23;20006;-92
2022/04/13 13:25:50;;;;;;;4.88;1.42;;;;;;;;;;6117597;23;20331;-90
2022/04/13 13:28:16;;;;;;;2.28;1.00;;;;;;;;;;6118447;23;20006;-91
2022/04/13 13:30:45;;;;;;;3.40;1.08;;;;;;;;;;6119182;23;20002;-90
2022/04/13 13:33:12;;;;;;;3.50;1.20;;;;;;;;;;6120158;23;20001;-90
2022/04/13 13:35:39;;;;;;;2.20;1.02;;;;;;;;;;6119216;23;20304;-89
2022/04/13 13:38:05;;;;;;;2.55;0.90;;;;;;;;;;6119479;23;20009;-89
2022/04/13 13:40:37;;;;;;;1.27;0.80;;;;;;;;;;6126928;23;20013;-92
2022/04/13 13:43:04;;;;;;;1.95;1.10;;;;;;;;;;6119946;23;20060;-88
2022/04/13 13:45:31;;;;;;;4.77;1.17;;;;;;;;;;6118390;23;20002;-90
2022/04/13 13:47:58;;;;;;;2.35;1.30;;;;;;;;;;6122728;23;20002;-93
2022/04/13 13:50:26;;;;;;;2.20;1.08;;;;;;;;;;6118651;23;20002;-92
2022/04/13 13:52:54;;;;;;;2.65;1.00;;;;;;;;;;6118080;23;20077;-91
2022/04/13 13:55:25;;;;;;;2.65;0.93;;;;;;;;;;6117894;23;20006;-90
2022/04/13 13:57:56;;;;;;;4.78;1.10;;;;;;;;;;6092768;23;20042;-92
2022/04/13 14:00:33;;;;;;;2.83;1.35;;;;;;;;;;6092841;23;20556;-91
2022/04/13 14:03:09;;;;;;;3.67;1.23;;;;;;;;;;6093232;23;20013;-92
2022/04/13 14:05:35;;;;;;;4.82;1.30;;;;;;;;;;6091676;23;20006;-91
2022/04/13 14:08:06;;;;;;;2.83;0.95;;;;;;;;;;6117423;23;20431;-89
2022/04/13 14:10:53;;;;;;;2.25;1.00;;;;;;;;;;6118268;23;20025;-90
2022/04/13 14:13:19;;;;;;;2.60;1.10;;;;;;;;;;6118608;23;20072;-90
2022/04/13 14:19:08;;;;;;;2.35;1.00;;;;;;;;;;6096030;23;20507;-92
2022/04/13 14:24:30;;;;;;;3.88;1.20;;;;;;;;;;6152854;23;20010;-94
2022/04/13 14:29:56;;;;;;;2.53;1.10;;;;;;;;;;6150277;23;20002;-91
2022/04/13 14:32:48;;;;;;;3.60;1.30;;;;;;;;;;6121799;23;20002;-92
2022/04/13 14:35:17;;;;;;;2.50;1.02;;;;;;;;;;6135872;23;20006;-92
2022/04/13 14:37:46;;;;;;;4.15;1.38;;;;;;;;;;6092896;23;20087;-90
2022/04/13 14:40:12;;;;;;;2.42;1.10;;;;;;;;;;6093361;23;20010;-94
2022/04/13 14:42:55;;;;;;;5.13;1.13;;;;;;;;;;6093213;23;20324;-92
2022/04/13 14:45:23;;;;;;;2.00;1.00;;;;;;;;;;6092440;23;20037;-92